createdAt,value
2022-10-18T00:02:16.429Z,88.00
2022-10-18T00:04:43.057Z,87.59
2022-10-18T00:07:09.698Z,87.69
2022-10-18T00:09:36.394Z,87.47
2022-10-18T00:12:03.364Z,87.15
2022-10-18T00:14:30.125Z,87.22
2022-10-18T00:16:57.366Z,87.01
2022-10-18T00:19:26.024Z,86.69
2022-10-18T00:21:55.223Z,87.00
2022-10-18T00:24:21.867Z,86.77
2022-10-18T00:26:48.594Z,87.15
2022-10-18T00:29:16.145Z,87.01
2022-10-18T00:31:43.758Z,87.19
2022-10-18T00:34:13.034Z,87.18
2022-10-18T00:36:40.001Z,87.18
2022-10-18T00:39:07.567Z,87.07
2022-10-18T00:41:35.555Z,87.06
2022-10-18T00:44:13.209Z,86.91
2022-10-18T00:46:42.180Z,87.19
2022-10-18T00:49:22.200Z,86.68
2022-10-18T00:51:48.879Z,87.23
2022-10-18T00:54:16.858Z,87.29
2022-10-18T00:56:44.868Z,87.43
2022-10-18T00:59:14.097Z,87.32
2022-10-18T01:01:40.821Z,87.56
2022-10-18T01:04:07.665Z,87.86
2022-10-18T01:07:05.906Z,87.68
2022-10-18T01:10:01.644Z,88.31
2022-10-18T01:12:43.387Z,88.41
2022-10-18T01:15:29.747Z,88.59
2022-10-18T01:17:56.367Z,88.29
2022-10-18T01:20:58.585Z,88.30
2022-10-18T01:23:40.285Z,87.76
2022-10-18T01:26:28.621Z,87.77
2022-10-18T01:28:55.186Z,87.76
2022-10-18T01:31:24.083Z,87.51
2022-10-18T01:33:54.055Z,87.08
2022-10-18T01:36:34.971Z,87.61
2022-10-18T01:39:06.231Z,87.33
2022-10-18T01:41:34.589Z,87.09
2022-10-18T01:44:03.244Z,87.21
2022-10-18T01:46:30.269Z,87.75
2022-10-18T01:48:57.685Z,87.97
2022-10-18T01:51:26.102Z,87.98
2022-10-18T01:53:52.977Z,87.92
2022-10-18T01:56:40.721Z,88.29
2022-10-18T01:59:39.410Z,88.75
2022-10-18T02:02:24.905Z,88.79
2022-10-18T02:05:01.805Z,88.69
2022-10-18T02:07:55.360Z,89.34
2022-10-18T02:10:38.455Z,88.43
2022-10-18T02:13:05.300Z,88.68
2022-10-18T02:15:37.680Z,88.78
2022-10-18T02:18:08.627Z,89.18
2022-10-18T02:20:36.620Z,88.82
2022-10-18T02:23:04.695Z,88.57
2022-10-18T02:25:31.805Z,88.74
2022-10-18T02:27:58.559Z,88.77
2022-10-18T02:30:31.317Z,89.03
2022-10-18T02:33:18.897Z,88.95
2022-10-18T02:35:47.612Z,88.52
2022-10-18T02:38:15.510Z,88.99
2022-10-18T02:40:42.196Z,88.89
2022-10-18T02:43:08.812Z,89.11
2022-10-18T02:45:35.475Z,89.67
2022-10-18T02:48:02.152Z,89.53
2022-10-18T02:50:28.786Z,89.66
2022-10-18T02:52:55.483Z,89.54
2022-10-18T02:55:22.160Z,89.64
2022-10-18T02:57:48.957Z,89.31
2022-10-18T03:00:15.810Z,89.69
2022-10-18T03:02:42.450Z,89.24
2022-10-18T03:05:09.136Z,89.30
2022-10-18T03:07:35.775Z,88.96
2022-10-18T03:10:02.548Z,88.85
2022-10-18T03:12:29.257Z,88.94
2022-10-18T03:14:55.972Z,89.01
2022-10-18T03:17:22.827Z,89.68
2022-10-18T03:19:49.494Z,89.87
2022-10-18T03:22:16.183Z,89.60
2022-10-18T03:24:42.981Z,89.75
2022-10-18T03:27:09.702Z,89.44
2022-10-18T03:29:36.355Z,89.35
2022-10-18T03:32:03.037Z,89.73
2022-10-18T03:34:29.696Z,89.75
2022-10-18T03:37:00.878Z,89.57
2022-10-18T03:39:30.132Z,89.95
2022-10-18T03:41:56.775Z,89.94
2022-10-18T03:44:23.433Z,89.87
2022-10-18T03:46:50.238Z,90.20
2022-10-18T03:49:16.968Z,90.87
2022-10-18T03:51:43.599Z,90.77
2022-10-18T03:54:10.197Z,90.35
2022-10-18T03:56:36.849Z,90.11
2022-10-18T03:59:04.481Z,90.20
2022-10-18T04:01:31.327Z,90.48
2022-10-18T04:03:58.075Z,90.31
2022-10-18T04:06:24.736Z,90.38
2022-10-18T04:08:51.373Z,90.52
2022-10-18T04:11:18.021Z,90.83
2022-10-18T04:13:44.734Z,90.38
2022-10-18T04:16:11.449Z,90.52
2022-10-18T04:18:38.201Z,90.26
2022-10-18T04:21:04.917Z,90.45
2022-10-18T04:23:33.862Z,90.31
2022-10-18T04:26:03.068Z,89.62
2022-10-18T04:28:29.762Z,89.55
2022-10-18T04:30:58.508Z,89.46
2022-10-18T04:33:25.704Z,90.21
2022-10-18T04:35:53.953Z,90.88
2022-10-18T04:38:20.788Z,91.41
2022-10-18T04:40:47.441Z,91.41
2022-10-18T04:43:14.162Z,91.37
2022-10-18T04:45:40.840Z,91.27
2022-10-18T04:48:07.612Z,91.53
2022-10-18T04:50:34.255Z,91.22
2022-10-18T04:53:00.872Z,90.74
2022-10-18T04:55:27.557Z,90.90
2022-10-18T04:57:54.208Z,90.88
2022-10-18T05:00:20.876Z,91.20
2022-10-18T05:02:47.517Z,91.38
2022-10-18T05:05:14.422Z,91.38
2022-10-18T05:07:41.471Z,91.60
2022-10-18T05:10:08.546Z,91.31
2022-10-18T05:12:35.315Z,90.96
2022-10-18T05:15:02.043Z,90.61
2022-10-18T05:17:28.792Z,90.37
2022-10-18T05:19:55.430Z,90.48
2022-10-18T05:22:22.166Z,90.63
2022-10-18T05:24:48.793Z,90.41
2022-10-18T05:27:15.474Z,90.45
2022-10-18T05:29:42.173Z,90.55
2022-10-18T05:32:08.856Z,90.03
2022-10-18T05:34:35.525Z,90.02
2022-10-18T05:37:02.162Z,89.79
2022-10-18T05:39:28.921Z,90.02
2022-10-18T05:41:55.761Z,90.35
2022-10-18T05:44:22.393Z,90.04
2022-10-18T05:46:49.030Z,89.96
2022-10-18T05:49:15.867Z,90.74
2022-10-18T05:51:42.552Z,90.10
2022-10-18T05:54:11.865Z,90.17
2022-10-18T05:59:12.187Z,90.31
2022-10-18T06:01:40.141Z,89.86
2022-10-18T06:04:06.820Z,89.86
2022-10-18T06:06:33.593Z,90.30
2022-10-18T06:09:00.294Z,90.36
2022-10-18T06:11:26.961Z,90.61
2022-10-18T06:13:53.616Z,90.81
2022-10-18T06:16:22.133Z,90.95
2022-10-18T06:18:53.092Z,91.32
2022-10-18T06:21:20.396Z,91.50
2022-10-18T06:23:50.873Z,91.40
2022-10-18T06:26:17.722Z,91.69
2022-10-18T06:28:44.471Z,91.82
2022-10-18T06:31:12.220Z,91.55
2022-10-18T06:33:38.869Z,91.60
2022-10-18T06:36:11.838Z,91.58
2022-10-18T06:38:38.401Z,93.02
2022-10-18T06:41:06.149Z,91.52
2022-10-18T06:43:32.956Z,91.23
2022-10-18T06:46:00.990Z,91.16
2022-10-18T06:48:27.619Z,91.40
2022-10-18T06:51:03.624Z,91.98
2022-10-18T06:53:32.453Z,91.92
2022-10-18T06:56:04.122Z,91.50
2022-10-18T06:58:30.948Z,91.78
2022-10-18T07:00:58.897Z,91.89
2022-10-18T07:03:26.266Z,92.37
2022-10-18T07:05:52.955Z,92.01
2022-10-18T07:08:19.680Z,92.70
2022-10-18T07:10:53.158Z,92.35
2022-10-18T07:13:31.911Z,92.43
2022-10-18T07:16:14.103Z,92.30
2022-10-18T07:18:49.596Z,91.99
2022-10-18T07:21:21.071Z,92.26
2022-10-18T07:23:48.333Z,92.35
2022-10-18T07:26:24.028Z,92.14
2022-10-18T07:28:55.175Z,92.35
2022-10-18T07:31:22.652Z,92.26
2022-10-18T07:33:49.308Z,91.55
2022-10-18T07:36:16.131Z,91.60
2022-10-18T07:38:42.895Z,91.14
2022-10-18T07:41:11.496Z,91.49
2022-10-18T07:43:41.564Z,91.53
2022-10-18T07:46:08.250Z,91.49
2022-10-18T07:48:34.978Z,91.15
2022-10-18T07:51:02.147Z,91.14
2022-10-18T07:53:29.298Z,91.56
2022-10-18T07:56:01.398Z,92.10
2022-10-18T07:58:31.646Z,92.00
2022-10-18T08:01:02.254Z,91.86
2022-10-18T08:03:28.959Z,92.31
2022-10-18T08:05:55.927Z,92.17
2022-10-18T08:08:23.397Z,91.88
2022-10-18T08:10:50.158Z,92.11
2022-10-18T08:13:17.137Z,92.42
2022-10-18T08:15:43.950Z,92.60
2022-10-18T08:18:11.525Z,92.24
2022-10-18T08:20:45.434Z,92.83
2022-10-18T08:23:12.222Z,92.59
2022-10-18T08:25:38.876Z,92.62
2022-10-18T08:28:06.038Z,92.56
2022-10-18T08:30:32.675Z,92.61
2022-10-18T08:32:59.312Z,92.97
2022-10-18T08:35:26.010Z,93.04
2022-10-18T08:37:52.691Z,92.69
2022-10-18T08:40:20.518Z,93.31
2022-10-18T08:42:57.898Z,93.95
2022-10-18T08:45:40.916Z,93.79
2022-10-18T08:48:18.852Z,94.06
2022-10-18T08:50:46.178Z,94.00
2022-10-18T08:53:56.814Z,95.07
2022-10-18T08:56:24.774Z,93.95
2022-10-18T08:58:51.677Z,93.93
2022-10-18T09:01:37.081Z,94.52
2022-10-18T09:04:03.675Z,94.19
2022-10-18T09:06:56.266Z,94.21
2022-10-18T09:09:41.132Z,94.59
2022-10-18T09:12:35.319Z,94.85
2022-10-18T09:15:35.429Z,94.94
2022-10-18T09:18:32.731Z,95.49
2022-10-18T09:21:01.182Z,94.51
2022-10-18T09:23:33.538Z,94.87
2022-10-18T09:26:18.835Z,95.36
2022-10-18T09:29:00.970Z,95.39
2022-10-18T09:31:50.215Z,95.99
2022-10-18T09:34:31.645Z,95.58
2022-10-18T09:36:59.149Z,95.62
2022-10-18T09:39:31.399Z,95.74
2022-10-18T09:42:03.809Z,95.84
2022-10-18T09:44:38.249Z,97.27
2022-10-18T09:47:21.885Z,99.53
2022-10-18T09:49:52.200Z,97.17
2022-10-18T09:52:23.546Z,97.45
2022-10-18T09:54:55.364Z,97.48
2022-10-18T09:57:35.624Z,98.21
2022-10-18T10:00:05.071Z,97.72
2022-10-18T10:02:31.921Z,98.44
2022-10-18T10:04:58.609Z,98.63
2022-10-18T10:07:35.060Z,98.33
2022-10-18T10:10:21.339Z,99.28
2022-10-18T10:12:49.089Z,98.69
2022-10-18T10:15:29.556Z,98.79
2022-10-18T10:18:18.007Z,99.32
2022-10-18T10:20:51.472Z,99.33
2022-10-18T10:23:37.435Z,99.95
2022-10-18T10:26:06.980Z,100.00
2022-10-18T10:28:37.227Z,99.44
2022-10-18T10:31:27.167Z,100.00
2022-10-18T10:34:13.921Z,100.00
2022-10-18T10:36:51.649Z,100.00
2022-10-18T10:39:19.941Z,100.00
2022-10-18T10:41:54.657Z,100.00
2022-10-18T10:44:23.300Z,100.00
2022-10-18T10:46:51.018Z,100.00
2022-10-18T10:52:26.972Z,99.87
2022-10-18T10:55:05.725Z,99.83
2022-10-18T10:57:32.732Z,99.35
2022-10-18T10:59:59.792Z,99.69
2022-10-18T11:02:31.787Z,99.81
2022-10-18T11:05:19.766Z,99.46
2022-10-18T11:07:46.705Z,99.39
2022-10-18T11:10:19.606Z,98.79
2022-10-18T11:12:46.767Z,100.00
2022-10-18T11:15:36.365Z,99.06
2022-10-18T11:18:25.772Z,98.43
2022-10-18T11:20:58.437Z,99.13
2022-10-18T11:23:30.523Z,98.42
2022-10-18T11:26:12.093Z,98.44
2022-10-18T11:29:15.254Z,99.28
2022-10-18T11:32:00.095Z,100.00
2022-10-18T11:34:26.981Z,99.47
2022-10-18T11:37:23.018Z,98.61
2022-10-18T11:39:58.351Z,98.43
2022-10-18T11:42:48.128Z,98.68
2022-10-18T11:45:32.040Z,97.97
2022-10-18T11:48:05.743Z,98.36
2022-10-18T11:50:48.378Z,98.03
2022-10-18T11:53:29.038Z,98.38
2022-10-18T11:56:13.565Z,98.48
2022-10-18T11:58:55.195Z,98.16
2022-10-18T12:01:49.917Z,97.91
2022-10-18T12:04:21.128Z,97.64
2022-10-18T12:06:51.071Z,97.49
2022-10-18T12:09:20.677Z,97.54
2022-10-18T12:11:55.795Z,97.43
2022-10-18T12:14:30.006Z,97.38
2022-10-18T12:17:27.979Z,97.33
2022-10-18T12:19:48.052Z,96.87
2022-10-18T12:22:23.200Z,96.58
2022-10-18T12:24:50.026Z,96.53
2022-10-18T12:27:17.225Z,96.50
2022-10-18T12:29:51.604Z,96.53
2022-10-18T12:32:22.446Z,96.73
2022-10-18T12:34:54.625Z,96.64
2022-10-18T12:37:36.724Z,96.98
2022-10-18T12:40:13.453Z,96.65
2022-10-18T12:42:45.978Z,96.87
2022-10-18T12:45:34.819Z,96.97
2022-10-18T12:48:08.382Z,97.15
2022-10-18T12:50:37.622Z,97.26
2022-10-18T12:53:10.342Z,97.40
2022-10-18T12:55:39.493Z,97.45
2022-10-18T12:58:30.340Z,97.25
2022-10-18T13:01:02.256Z,97.46
2022-10-18T13:03:38.869Z,97.17
2022-10-18T13:06:06.785Z,97.04
2022-10-18T13:08:43.137Z,96.88
2022-10-18T13:11:10.036Z,97.28
2022-10-18T13:13:54.961Z,97.08
2022-10-18T13:16:45.686Z,97.73
2022-10-18T13:19:28.591Z,97.24
2022-10-18T13:22:32.889Z,97.45
2022-10-18T13:25:25.585Z,98.06
2022-10-18T13:28:16.172Z,98.60
2022-10-18T13:30:58.771Z,99.07
2022-10-18T13:33:30.702Z,99.15
2022-10-18T13:35:59.507Z,99.90
2022-10-18T13:38:34.292Z,100.00
2022-10-18T13:41:16.961Z,100.00
2022-10-18T13:43:52.844Z,100.00
2022-10-18T13:46:20.412Z,100.00
2022-10-18T13:48:51.577Z,98.62
2022-10-18T13:51:38.700Z,98.52
2022-10-18T13:54:31.989Z,98.42
2022-10-18T13:57:17.351Z,99.05
2022-10-18T13:59:53.897Z,98.46
2022-10-18T14:02:51.558Z,98.15
2022-10-18T14:05:33.646Z,98.33
2022-10-18T14:08:08.160Z,98.68
2022-10-18T14:11:01.810Z,99.50
2022-10-18T14:13:39.629Z,99.51
2022-10-18T14:16:28.375Z,98.69
2022-10-18T14:19:01.559Z,97.66
2022-10-18T14:21:34.482Z,97.98
2022-10-18T14:24:00.974Z,99.34
2022-10-18T14:26:29.219Z,99.04
2022-10-18T14:29:06.459Z,99.11
2022-10-18T14:31:33.564Z,99.45
2022-10-18T14:34:01.008Z,99.19
2022-10-18T14:36:34.426Z,99.11
2022-10-18T14:39:04.264Z,98.71
2022-10-18T14:41:32.872Z,99.03
2022-10-18T14:44:14.665Z,99.06
2022-10-18T14:46:52.954Z,98.16
2022-10-18T14:49:20.345Z,98.15
2022-10-18T14:51:52.266Z,98.46
2022-10-18T14:54:31.840Z,98.24
2022-10-18T14:57:00.514Z,98.91
2022-10-18T14:59:28.994Z,98.92
2022-10-18T15:02:01.820Z,98.66
2022-10-18T15:04:32.765Z,99.86
2022-10-18T15:07:04.653Z,99.17
2022-10-18T15:09:34.593Z,99.17
2022-10-18T15:12:04.086Z,99.32
2022-10-18T15:14:30.937Z,99.50
2022-10-18T15:17:04.926Z,99.56
2022-10-18T15:19:34.402Z,99.81
2022-10-18T15:25:05.773Z,100.00
2022-10-18T15:27:36.281Z,100.00
2022-10-18T15:30:34.901Z,100.00
2022-10-18T15:33:03.840Z,100.00
2022-10-18T15:35:33.348Z,100.00
2022-10-18T15:38:03.514Z,100.00
2022-10-18T15:40:35.542Z,100.00
2022-10-18T15:43:06.221Z,100.00
2022-10-18T15:45:34.083Z,100.00
2022-10-18T15:48:02.090Z,100.00
2022-10-18T15:50:43.829Z,100.00
2022-10-18T15:53:22.768Z,100.00
2022-10-18T15:56:23.190Z,100.00
2022-10-18T15:58:51.250Z,100.00
2022-10-18T16:01:21.294Z,100.00
2022-10-18T16:03:48.735Z,100.00
2022-10-18T16:06:18.205Z,100.00
2022-10-18T16:08:47.926Z,100.00
2022-10-18T16:11:17.373Z,100.00
2022-10-18T16:13:44.538Z,100.00
2022-10-18T16:16:23.206Z,100.00
2022-10-18T16:18:50.270Z,100.00
2022-10-18T16:21:18.465Z,100.00
2022-10-18T16:23:45.615Z,100.00
2022-10-18T16:26:13.022Z,100.00
2022-10-18T16:28:40.022Z,100.00
2022-10-18T16:31:07.341Z,100.00
2022-10-18T16:33:35.686Z,100.00
2022-10-18T16:36:04.740Z,100.00
2022-10-18T16:38:36.873Z,100.00
2022-10-18T16:41:05.006Z,100.00
2022-10-18T16:43:32.326Z,100.00
2022-10-18T16:45:59.311Z,100.00
2022-10-18T16:48:26.162Z,100.00
2022-10-18T16:50:54.395Z,100.00
2022-10-18T16:53:25.054Z,100.00
2022-10-18T16:55:59.482Z,100.00
2022-10-18T16:58:27.468Z,100.00
2022-10-18T17:00:54.362Z,100.00
2022-10-18T17:03:21.588Z,100.00
2022-10-18T17:05:48.382Z,100.00
2022-10-18T17:08:19.307Z,100.00
2022-10-18T17:10:47.640Z,100.00
2022-10-18T17:13:14.615Z,100.00
2022-10-18T17:15:42.447Z,100.00
2022-10-18T17:18:15.469Z,100.00
2022-10-18T17:20:42.848Z,100.00
2022-10-18T17:23:09.964Z,100.00
2022-10-18T17:25:46.279Z,100.00
2022-10-18T17:28:24.614Z,100.00
2022-10-18T17:30:52.030Z,100.00
2022-10-18T17:33:18.770Z,100.00
2022-10-18T17:35:45.416Z,100.00
2022-10-18T17:38:12.333Z,100.00
2022-10-18T17:40:42.789Z,100.00
2022-10-18T17:43:10.286Z,100.00
2022-10-18T17:45:37.893Z,100.00
2022-10-18T17:48:04.729Z,100.00
2022-10-18T17:50:31.575Z,100.00
2022-10-18T17:52:58.470Z,100.00
2022-10-18T17:55:25.159Z,100.00
2022-10-18T17:57:51.794Z,100.00
2022-10-18T18:00:18.770Z,100.00
2022-10-18T18:02:46.582Z,100.00
2022-10-18T18:05:13.328Z,100.00
2022-10-18T18:07:40.166Z,100.00
2022-10-18T18:10:07.046Z,100.00
2022-10-18T18:12:33.898Z,100.00
2022-10-18T18:15:00.801Z,100.00
2022-10-18T18:17:34.043Z,100.00
2022-10-18T18:20:06.968Z,100.00
2022-10-18T18:22:35.267Z,100.00
2022-10-18T18:25:04.182Z,100.00
2022-10-18T18:27:31.120Z,100.00
2022-10-18T18:29:57.787Z,100.00
2022-10-18T18:32:24.460Z,100.00
2022-10-18T18:34:51.410Z,100.00
2022-10-18T18:37:18.102Z,100.00
2022-10-18T18:39:45.023Z,100.00
2022-10-18T18:42:11.956Z,100.00
2022-10-18T18:44:38.712Z,100.00
2022-10-18T18:47:10.843Z,100.00
2022-10-18T18:49:39.749Z,100.00
2022-10-18T18:52:06.939Z,100.00
2022-10-18T18:54:33.773Z,100.00
2022-10-18T18:57:05.105Z,100.00
2022-10-18T18:59:31.822Z,100.00
2022-10-18T19:01:58.631Z,100.00
2022-10-18T19:04:25.361Z,100.00
2022-10-18T19:06:52.130Z,100.00
2022-10-18T19:09:22.144Z,100.00
2022-10-18T19:11:50.753Z,100.00
2022-10-18T19:14:17.489Z,100.00
2022-10-18T19:16:53.266Z,100.00
2022-10-18T19:19:25.317Z,100.00
2022-10-18T19:21:54.458Z,100.00
2022-10-18T19:24:22.177Z,100.00
2022-10-18T19:26:54.154Z,100.00
2022-10-18T19:29:23.582Z,100.00
2022-10-18T19:31:51.765Z,100.00
2022-10-18T19:34:19.467Z,100.00
2022-10-18T19:36:47.494Z,100.00
2022-10-18T19:39:19.681Z,100.00
2022-10-18T19:41:50.836Z,100.00
2022-10-18T19:44:19.015Z,100.00
2022-10-18T19:46:46.246Z,99.95
2022-10-18T19:49:12.969Z,99.74
2022-10-18T19:51:39.692Z,99.61
2022-10-18T19:54:06.440Z,99.82
2022-10-18T19:56:33.206Z,99.58
2022-10-18T19:59:00.481Z,99.45
2022-10-18T20:01:28.503Z,99.15
2022-10-18T20:03:55.285Z,99.08
2022-10-18T20:06:22.410Z,98.95
2022-10-18T20:08:49.548Z,98.88
2022-10-18T20:11:22.438Z,99.08
2022-10-18T20:13:49.050Z,100.00
2022-10-18T20:16:17.580Z,99.80
2022-10-18T20:18:44.581Z,99.07
2022-10-18T20:21:13.546Z,99.31
2022-10-18T20:23:41.454Z,99.24
2022-10-18T20:26:11.149Z,99.09
2022-10-18T20:28:38.704Z,99.61
2022-10-18T20:31:07.970Z,98.89
2022-10-18T20:33:35.846Z,98.94
2022-10-18T20:36:10.713Z,98.71
2022-10-18T20:38:39.022Z,99.03
2022-10-18T20:41:21.050Z,98.27
2022-10-18T20:43:52.587Z,98.46
2022-10-18T20:46:19.690Z,98.65
2022-10-18T20:48:46.558Z,98.50
2022-10-18T20:51:13.486Z,98.67
2022-10-18T20:53:40.815Z,98.16
2022-10-18T20:56:15.418Z,97.47
2022-10-18T20:58:43.822Z,97.97
2022-10-18T21:01:17.310Z,97.78
2022-10-18T21:03:45.275Z,97.73
2022-10-18T21:06:19.800Z,97.37
2022-10-18T21:08:47.106Z,97.58
2022-10-18T21:11:14.939Z,97.91
2022-10-18T21:13:41.578Z,97.56
2022-10-18T21:16:08.647Z,97.80
2022-10-18T21:18:36.371Z,97.49
2022-10-18T21:21:18.326Z,96.99
2022-10-18T21:23:45.402Z,97.52
2022-10-18T21:26:15.255Z,97.18
2022-10-18T21:28:42.144Z,98.03
2022-10-18T21:31:10.697Z,97.86
2022-10-18T21:33:37.392Z,97.90
2022-10-18T21:36:04.253Z,97.80
2022-10-18T21:38:30.991Z,97.78
2022-10-18T21:40:57.729Z,97.17
2022-10-18T21:43:24.355Z,96.99
2022-10-18T21:45:57.911Z,96.47
2022-10-18T21:48:24.581Z,97.07
2022-10-18T21:50:51.231Z,96.87
2022-10-18T21:53:18.073Z,96.94
2022-10-18T21:55:44.832Z,96.62
2022-10-18T21:58:11.544Z,96.34
2022-10-18T22:00:39.086Z,96.37
2022-10-18T22:03:14.925Z,96.13
2022-10-18T22:05:41.678Z,96.66
2022-10-18T22:08:08.379Z,96.48
2022-10-18T22:10:35.007Z,96.72
2022-10-18T22:13:01.714Z,96.58
2022-10-18T22:15:28.488Z,96.38
2022-10-18T22:17:55.164Z,96.85
2022-10-18T22:20:22.059Z,96.65
2022-10-18T22:22:48.755Z,96.54
2022-10-18T22:25:15.577Z,96.58
2022-10-18T22:27:42.237Z,96.78
2022-10-18T22:30:09.609Z,96.48
2022-10-18T22:32:36.371Z,96.82
2022-10-18T22:35:03.070Z,96.70
2022-10-18T22:37:29.867Z,96.49
2022-10-18T22:39:56.600Z,96.83
2022-10-18T22:42:23.361Z,96.62
2022-10-18T22:44:50.079Z,97.05
2022-10-18T22:47:16.722Z,96.75
2022-10-18T22:49:43.521Z,97.08
2022-10-18T22:52:10.168Z,97.16
2022-10-18T22:54:36.895Z,96.97
2022-10-18T22:57:04.716Z,96.85
2022-10-18T22:59:31.431Z,97.38
2022-10-18T23:01:58.069Z,97.47
2022-10-18T23:04:24.736Z,97.25
2022-10-18T23:06:51.526Z,97.03
2022-10-18T23:09:18.192Z,96.92
2022-10-18T23:11:44.900Z,96.94
2022-10-18T23:14:11.662Z,97.11
2022-10-18T23:16:38.309Z,97.00
2022-10-18T23:19:05.134Z,96.88
2022-10-18T23:21:33.428Z,96.39
2022-10-18T23:24:00.177Z,96.52
2022-10-18T23:26:27.719Z,96.43
2022-10-18T23:28:55.024Z,96.75
2022-10-18T23:31:24.910Z,95.84
2022-10-18T23:33:53.938Z,96.06
2022-10-18T23:36:21.851Z,95.92
2022-10-18T23:38:48.654Z,96.33
2022-10-18T23:41:15.984Z,96.06
2022-10-18T23:43:43.313Z,95.14
2022-10-18T23:46:10.637Z,95.32
2022-10-18T23:48:37.347Z,95.52
2022-10-18T23:51:04.386Z,95.38
2022-10-18T23:53:31.619Z,94.68
2022-10-18T23:56:00.672Z,94.83
2022-10-18T23:58:28.598Z,94.93
